createdAt,value
2022-09-20T00:00:41.946Z,4.80
2022-09-20T00:03:27.774Z,6.60
2022-09-20T00:06:05.922Z,4.80
2022-09-20T00:08:36.711Z,5.00
2022-09-20T00:11:30.674Z,4.80
2022-09-20T00:14:02.896Z,3.90
2022-09-20T00:16:35.827Z,4.40
2022-09-20T00:19:10.227Z,5.30
2022-09-20T00:21:40.850Z,4.30
2022-09-20T00:24:12.372Z,4.50
2022-09-20T00:26:42.160Z,4.50
2022-09-20T00:29:13.651Z,5.40
2022-09-20T00:31:43.498Z,4.40
2022-09-20T00:34:32.942Z,4.00
2022-09-20T00:37:43.133Z,5.10
2022-09-20T00:40:21.363Z,4.70
2022-09-20T00:43:05.138Z,4.30
2022-09-20T00:45:40.815Z,5.10
2022-09-20T00:48:23.823Z,4.70
2022-09-20T00:51:00.859Z,6.80
2022-09-20T00:53:40.380Z,3.70
2022-09-20T00:56:19.009Z,4.80
2022-09-20T00:59:01.811Z,4.50
2022-09-20T01:01:55.440Z,5.20
2022-09-20T01:04:28.279Z,4.70
2022-09-20T01:07:12.519Z,4.20
2022-09-20T01:09:42.449Z,5.60
2022-09-20T01:12:20.232Z,5.90
2022-09-20T01:14:52.342Z,5.60
2022-09-20T01:17:29.801Z,4.50
2022-09-20T01:20:03.052Z,5.20
2022-09-20T01:23:13.247Z,4.80
2022-09-20T01:26:13.748Z,5.10
2022-09-20T01:28:51.877Z,4.80
2022-09-20T01:31:35.050Z,4.60
2022-09-20T01:34:29.138Z,8.20
2022-09-20T01:37:07.914Z,7.20
2022-09-20T01:39:42.687Z,7.40
2022-09-20T01:42:14.603Z,6.20
2022-09-20T01:45:03.231Z,7.50
2022-09-20T01:47:49.981Z,7.10
2022-09-20T01:50:59.005Z,7.20
2022-09-20T01:53:29.065Z,7.70
2022-09-20T01:56:38.977Z,7.90
2022-09-20T01:59:52.606Z,8.00
2022-09-20T02:02:48.617Z,7.30
2022-09-20T02:05:36.366Z,6.70
2022-09-20T02:08:35.982Z,8.20
2022-09-20T02:11:08.808Z,8.30
2022-09-20T02:13:59.711Z,9.50
2022-09-20T02:17:07.778Z,7.70
2022-09-20T02:19:56.249Z,7.60
2022-09-20T02:22:29.072Z,7.50
2022-09-20T02:25:17.831Z,8.40
2022-09-20T02:28:07.149Z,9.00
2022-09-20T02:30:57.386Z,8.90
2022-09-20T02:33:57.000Z,12.00
2022-09-20T02:36:47.812Z,8.20
2022-09-20T02:39:43.009Z,8.50
2022-09-20T02:42:34.338Z,9.40
2022-09-20T02:45:09.692Z,7.80
2022-09-20T02:47:45.462Z,7.70
2022-09-20T02:50:34.324Z,9.70
2022-09-20T02:53:12.620Z,8.10
2022-09-20T02:56:13.523Z,9.00
2022-09-20T02:59:01.563Z,8.20
2022-09-20T03:01:43.944Z,10.30
2022-09-20T03:04:45.277Z,8.10
2022-09-20T03:07:42.990Z,9.00
2022-09-20T03:10:28.010Z,9.30
2022-09-20T03:13:22.043Z,9.30
2022-09-20T03:16:09.890Z,7.70
2022-09-20T03:18:48.629Z,9.10
2022-09-20T03:21:43.293Z,8.70
2022-09-20T03:24:18.493Z,9.10
2022-09-20T03:27:18.580Z,7.30
2022-09-20T03:30:03.429Z,8.30
2022-09-20T03:32:57.349Z,7.70
2022-09-20T03:35:50.403Z,7.60
2022-09-20T03:38:38.198Z,8.00
2022-09-20T03:41:24.100Z,8.70
2022-09-20T03:44:10.131Z,7.00
2022-09-20T03:48:06.474Z,9.40
2022-09-20T03:51:01.259Z,7.10
2022-09-20T03:53:52.503Z,7.90
2022-09-20T03:57:04.132Z,8.50
2022-09-20T03:59:57.982Z,8.30
2022-09-20T04:02:55.740Z,7.30
2022-09-20T04:08:18.334Z,8.60
2022-09-20T04:11:06.959Z,7.90
2022-09-20T04:14:20.062Z,7.50
2022-09-20T04:17:22.190Z,7.40
2022-09-20T04:19:55.093Z,8.60
2022-09-20T04:22:36.803Z,11.00
2022-09-20T04:25:29.047Z,7.90
2022-09-20T04:28:09.416Z,8.10
2022-09-20T04:30:47.517Z,8.00
2022-09-20T04:33:28.483Z,8.40
2022-09-20T04:36:23.488Z,8.40
2022-09-20T04:39:11.323Z,8.40
2022-09-20T04:42:03.202Z,7.10
2022-09-20T04:45:14.999Z,8.10
2022-09-20T04:48:25.111Z,7.40
2022-09-20T04:51:28.179Z,8.00
2022-09-20T04:54:42.523Z,8.20
2022-09-20T04:57:37.844Z,7.70
2022-09-20T05:00:17.515Z,7.30
2022-09-20T05:03:35.921Z,8.10
2022-09-20T05:06:40.284Z,6.90
2022-09-20T05:09:19.463Z,8.10
2022-09-20T05:12:07.863Z,6.90
2022-09-20T05:14:45.914Z,7.30
2022-09-20T05:17:26.232Z,6.70
2022-09-20T05:20:20.819Z,6.00
2022-09-20T05:23:12.814Z,6.50
2022-09-20T05:26:00.235Z,8.10
2022-09-20T05:28:56.481Z,9.50
2022-09-20T05:31:32.192Z,7.70
2022-09-20T05:35:12.943Z,6.80
2022-09-20T05:38:01.129Z,6.50
2022-09-20T05:40:51.191Z,6.50
2022-09-20T05:43:34.854Z,6.40
2022-09-20T05:46:24.694Z,6.80
2022-09-20T05:49:12.223Z,5.60
2022-09-20T05:52:04.360Z,7.80
2022-09-20T05:55:17.274Z,5.60
2022-09-20T05:58:01.215Z,7.00
2022-09-20T06:01:23.494Z,6.40
2022-09-20T06:04:24.858Z,7.20
2022-09-20T06:07:23.757Z,6.30
2022-09-20T06:10:14.868Z,6.00
2022-09-20T06:12:53.593Z,6.80
2022-09-20T06:15:59.164Z,5.90
2022-09-20T06:18:53.212Z,4.80
2022-09-20T06:21:48.378Z,5.60
2022-09-20T06:24:48.836Z,6.90
2022-09-20T06:27:31.731Z,5.50
2022-09-20T06:30:15.367Z,124.50
2022-09-20T06:33:19.372Z,248.60
2022-09-20T06:35:55.734Z,189.00
2022-09-20T06:38:56.380Z,357.40
2022-09-20T06:41:28.870Z,91.00
2022-09-20T06:44:03.904Z,27.60
2022-09-20T06:49:09.217Z,264.80
2022-09-20T06:51:40.653Z,270.10
2022-09-20T06:54:18.442Z,131.60
2022-09-20T06:56:56.308Z,93.70
2022-09-20T07:00:01.330Z,69.30
2022-09-20T07:02:43.747Z,20.00
2022-09-20T07:05:29.210Z,8.00
2022-09-20T07:08:06.131Z,6.20
2022-09-20T07:10:42.266Z,4.80
2022-09-20T07:13:32.766Z,4.70
2022-09-20T07:16:15.035Z,6.70
2022-09-20T07:19:01.378Z,10.10
2022-09-20T07:21:46.772Z,7.20
2022-09-20T07:24:33.160Z,5.20
2022-09-20T07:27:12.050Z,5.40
2022-09-20T07:29:48.777Z,4.70
2022-09-20T07:32:31.265Z,7.00
2022-09-20T07:35:02.679Z,5.30
2022-09-20T07:37:39.250Z,4.60
2022-09-20T07:40:16.318Z,5.40
2022-09-20T07:42:56.096Z,4.90
2022-09-20T07:45:30.637Z,5.50
2022-09-20T07:48:00.717Z,5.20
2022-09-20T07:50:30.851Z,6.00
2022-09-20T07:53:17.169Z,4.90
2022-09-20T07:56:11.862Z,5.80
2022-09-20T07:58:52.444Z,69.90
2022-09-20T08:01:31.941Z,68.80
2022-09-20T08:04:39.472Z,16.30
2022-09-20T08:07:13.988Z,16.00
2022-09-20T08:09:59.433Z,17.90
2022-09-20T08:15:28.697Z,13.60
2022-09-20T08:18:07.190Z,9.60
2022-09-20T08:20:49.771Z,8.00
2022-09-20T08:23:23.770Z,13.40
2022-09-20T08:25:58.715Z,5.90
2022-09-20T08:31:09.916Z,7.10
2022-09-20T08:33:40.902Z,7.40
2022-09-20T08:36:15.728Z,6.10
2022-09-20T08:42:21.922Z,7.20
2022-09-20T08:45:34.557Z,7.00
2022-09-20T08:48:09.676Z,6.10
2022-09-20T08:53:21.241Z,6.00
2022-09-20T08:55:51.819Z,5.30
2022-09-20T08:58:31.049Z,4.10
2022-09-20T09:01:04.776Z,5.20
2022-09-20T09:03:39.313Z,4.40
2022-09-20T09:06:25.471Z,4.50
2022-09-20T09:08:59.244Z,5.50
2022-09-20T09:11:32.920Z,7.90
2022-09-20T09:14:52.752Z,14.70
2022-09-20T09:17:28.983Z,9.30
2022-09-20T09:20:22.522Z,9.30
2022-09-20T09:23:10.050Z,11.20
2022-09-20T09:26:48.532Z,11.10
2022-09-20T09:29:24.180Z,5.20
2022-09-20T09:32:15.806Z,5.80
2022-09-20T09:34:45.888Z,6.30
2022-09-20T09:37:31.697Z,12.50
2022-09-20T09:40:32.683Z,6.70
2022-09-20T09:43:04.805Z,8.80
2022-09-20T09:45:55.114Z,5.40
2022-09-20T09:48:31.763Z,8.20
2022-09-20T09:51:24.281Z,5.30
2022-09-20T09:53:56.094Z,5.20
2022-09-20T09:56:50.072Z,5.20
2022-09-20T09:59:51.533Z,5.10
2022-09-20T10:02:58.413Z,5.00
2022-09-20T10:05:57.620Z,4.10
2022-09-20T10:08:59.268Z,4.80
2022-09-20T10:11:44.093Z,5.20
2022-09-20T10:14:22.778Z,4.20
2022-09-20T10:17:17.178Z,4.90
2022-09-20T10:20:03.540Z,3.80
2022-09-20T10:26:27.570Z,4.70
2022-09-20T10:29:23.686Z,4.70
2022-09-20T10:32:26.067Z,3.80
2022-09-20T10:35:30.792Z,4.70
2022-09-20T10:38:35.513Z,4.00
2022-09-20T10:41:46.297Z,4.20
2022-09-20T10:44:37.908Z,4.40
2022-09-20T10:47:20.909Z,3.90
2022-09-20T10:49:59.750Z,4.70
2022-09-20T10:53:08.540Z,4.10
2022-09-20T10:56:07.062Z,3.70
2022-09-20T10:58:58.293Z,4.60
2022-09-20T11:02:26.594Z,3.80
2022-09-20T11:05:42.667Z,4.80
2022-09-20T11:08:29.441Z,6.70
2022-09-20T11:11:33.519Z,5.00
2022-09-20T11:14:23.297Z,4.80
2022-09-20T11:17:28.763Z,7.70
2022-09-20T11:20:45.542Z,16.20
2022-09-20T11:23:19.952Z,9.70
2022-09-20T11:26:22.191Z,28.80
2022-09-20T11:29:00.464Z,10.60
2022-09-20T11:31:38.233Z,10.40
2022-09-20T11:34:19.387Z,13.70
2022-09-20T11:37:04.856Z,9.80
2022-09-20T11:40:07.867Z,12.90
2022-09-20T11:42:46.860Z,6.90
2022-09-20T11:45:28.169Z,3.30
2022-09-20T11:48:10.915Z,3.90
2022-09-20T11:51:13.802Z,4.10
2022-09-20T11:54:14.023Z,3.50
2022-09-20T11:56:53.055Z,7.50
2022-09-20T11:59:36.484Z,4.00
2022-09-20T12:02:29.274Z,4.90
2022-09-20T12:05:03.248Z,5.40
2022-09-20T12:07:52.308Z,5.90
2022-09-20T12:10:28.515Z,4.50
2022-09-20T12:13:06.963Z,4.90
2022-09-20T12:15:45.849Z,4.60
2022-09-20T12:18:40.507Z,3.20
2022-09-20T12:21:16.069Z,3.50
2022-09-20T12:24:18.235Z,3.70
2022-09-20T12:26:48.933Z,3.40
2022-09-20T12:30:01.481Z,3.50
2022-09-20T12:32:40.201Z,3.30
2022-09-20T12:35:41.238Z,3.30
2022-09-20T12:38:34.143Z,4.70
2022-09-20T12:41:15.477Z,3.10
2022-09-20T12:43:59.124Z,3.80
2022-09-20T12:46:34.695Z,3.90
2022-09-20T12:49:42.364Z,3.70
2022-09-20T12:52:48.641Z,3.80
2022-09-20T12:55:33.963Z,3.50
2022-09-20T12:58:16.806Z,3.50
2022-09-20T13:00:49.608Z,3.50
2022-09-20T13:03:43.322Z,7.80
2022-09-20T13:06:36.502Z,4.50
2022-09-20T13:09:11.332Z,3.40
2022-09-20T13:11:56.797Z,4.50
2022-09-20T13:17:01.952Z,4.00
2022-09-20T13:19:34.201Z,3.40
2022-09-20T13:22:12.411Z,3.60
2022-09-20T13:25:03.639Z,4.30
2022-09-20T13:27:38.019Z,3.60
2022-09-20T13:33:24.558Z,3.40
2022-09-20T13:35:59.119Z,3.90
2022-09-20T13:38:32.572Z,5.80
2022-09-20T13:41:10.262Z,3.70
2022-09-20T13:43:51.042Z,3.40
2022-09-20T13:46:30.495Z,3.90
2022-09-20T13:49:15.293Z,3.90
2022-09-20T13:51:45.440Z,3.40
2022-09-20T13:54:30.704Z,3.40
2022-09-20T13:57:03.669Z,3.90
2022-09-20T13:59:47.068Z,3.20
2022-09-20T14:02:24.627Z,3.10
2022-09-20T14:05:00.780Z,3.70
2022-09-20T14:07:32.526Z,5.10
2022-09-20T14:10:05.432Z,4.30
2022-09-20T14:12:44.582Z,3.50
2022-09-20T14:15:17.483Z,4.00
2022-09-20T14:17:48.995Z,3.80
2022-09-20T14:20:20.123Z,3.30
2022-09-20T14:22:49.924Z,4.60
2022-09-20T14:25:26.241Z,5.10
2022-09-20T14:28:08.008Z,4.20
2022-09-20T14:30:41.500Z,3.80
2022-09-20T14:33:18.920Z,3.30
2022-09-20T14:35:53.529Z,3.20
2022-09-20T14:38:28.173Z,3.00
2022-09-20T14:40:57.952Z,3.50
2022-09-20T14:43:28.253Z,3.00
2022-09-20T14:46:04.149Z,3.20
2022-09-20T14:48:42.503Z,3.10
2022-09-20T14:51:22.650Z,3.00
2022-09-20T14:54:12.720Z,3.20
2022-09-20T14:56:50.311Z,3.20
2022-09-20T14:59:25.500Z,3.70
2022-09-20T15:02:16.539Z,3.00
2022-09-20T15:05:00.070Z,3.20
2022-09-20T15:07:42.059Z,2.70
2022-09-20T15:10:15.593Z,3.20
2022-09-20T15:12:45.340Z,3.40
2022-09-20T15:15:17.943Z,3.30
2022-09-20T15:17:48.566Z,3.40
2022-09-20T15:20:24.490Z,3.30
2022-09-20T15:22:56.093Z,3.70
2022-09-20T15:25:30.547Z,3.10
2022-09-20T15:28:16.959Z,3.10
2022-09-20T15:30:49.210Z,3.20
2022-09-20T15:33:31.390Z,3.70
2022-09-20T15:36:12.738Z,3.50
2022-09-20T15:38:46.181Z,4.10
2022-09-20T15:41:15.986Z,3.20
2022-09-20T15:43:45.775Z,3.50
2022-09-20T15:46:22.622Z,3.20
2022-09-20T15:48:52.510Z,3.00
2022-09-20T15:51:22.663Z,3.20
2022-09-20T15:54:02.797Z,3.00
2022-09-20T15:56:34.762Z,4.10
2022-09-20T15:59:09.953Z,3.20
2022-09-20T16:01:45.504Z,2.90
2022-09-20T16:04:18.004Z,3.30
2022-09-20T16:06:50.096Z,3.00
2022-09-20T16:09:20.884Z,2.80
2022-09-20T16:11:50.913Z,2.80
2022-09-20T16:14:24.079Z,3.50
2022-09-20T16:16:53.936Z,3.30
2022-09-20T16:19:26.853Z,4.00
2022-09-20T16:22:17.630Z,3.20
2022-09-20T16:24:47.524Z,4.00
2022-09-20T16:27:23.862Z,4.20
2022-09-20T16:29:56.453Z,5.10
2022-09-20T16:32:33.210Z,5.30
2022-09-20T16:35:08.195Z,3.80
2022-09-20T16:37:43.634Z,3.30
2022-09-20T16:40:16.027Z,3.00
2022-09-20T16:42:52.237Z,3.60
2022-09-20T16:45:23.832Z,3.30
2022-09-20T16:47:59.681Z,3.70
2022-09-20T16:50:30.591Z,3.30
2022-09-20T16:53:00.477Z,4.30
2022-09-20T16:55:30.169Z,3.40
2022-09-20T16:58:03.589Z,3.30
2022-09-20T17:00:35.113Z,3.00
2022-09-20T17:03:05.363Z,3.40
2022-09-20T17:05:35.691Z,3.20
2022-09-20T17:08:05.947Z,2.60
2022-09-20T17:10:35.938Z,3.40
2022-09-20T17:13:08.078Z,4.10
2022-09-20T17:15:39.008Z,5.00
2022-09-20T17:18:14.881Z,3.50
2022-09-20T17:20:46.292Z,3.50
2022-09-20T17:23:19.177Z,3.70
2022-09-20T17:25:49.019Z,3.00
2022-09-20T17:28:18.544Z,3.60
2022-09-20T17:30:48.813Z,3.00
2022-09-20T17:33:18.566Z,4.20
2022-09-20T17:35:59.802Z,5.50
2022-09-20T17:38:31.897Z,4.50
2022-09-20T17:41:09.845Z,5.10
2022-09-20T17:43:43.535Z,5.00
2022-09-20T17:46:37.709Z,4.70
2022-09-20T17:49:13.314Z,3.90
2022-09-20T17:51:48.839Z,4.60
2022-09-20T17:54:19.745Z,4.00
2022-09-20T17:56:51.401Z,4.40
2022-09-20T17:59:21.693Z,4.80
2022-09-20T18:01:52.245Z,5.30
2022-09-20T18:04:30.013Z,4.50
2022-09-20T18:07:07.564Z,4.60
2022-09-20T18:09:40.544Z,3.50
2022-09-20T18:12:17.529Z,4.60
2022-09-20T18:14:49.693Z,3.20
2022-09-20T18:17:19.605Z,3.40
2022-09-20T18:19:52.301Z,6.30
2022-09-20T18:22:22.091Z,4.30
2022-09-20T18:24:56.073Z,4.20
2022-09-20T18:27:25.851Z,3.40
2022-09-20T18:29:55.729Z,4.00
2022-09-20T18:32:30.461Z,5.10
2022-09-20T18:35:00.395Z,3.70
2022-09-20T18:37:31.358Z,4.50
2022-09-20T18:40:08.096Z,4.30
2022-09-20T18:42:45.101Z,4.60
2022-09-20T18:45:15.610Z,4.50
2022-09-20T18:47:48.752Z,4.50
2022-09-20T18:50:21.545Z,3.90
2022-09-20T18:52:52.177Z,4.70
2022-09-20T18:55:25.393Z,4.70
2022-09-20T18:57:58.231Z,4.30
2022-09-20T19:00:32.072Z,3.70
2022-09-20T19:03:13.008Z,6.20
2022-09-20T19:05:51.673Z,4.70
2022-09-20T19:08:54.792Z,4.70
2022-09-20T19:12:03.467Z,5.10
2022-09-20T19:15:06.596Z,6.90
2022-09-20T19:17:54.019Z,4.60
2022-09-20T19:20:30.844Z,5.70
2022-09-20T19:23:32.749Z,3.70
2022-09-20T19:26:19.194Z,3.70
2022-09-20T19:29:23.215Z,5.90
2022-09-20T19:31:56.139Z,4.00
2022-09-20T19:34:28.561Z,3.90
2022-09-20T19:37:05.944Z,3.40
2022-09-20T19:39:54.068Z,7.10
2022-09-20T19:42:54.292Z,6.60
2022-09-20T19:45:41.453Z,4.30
2022-09-20T19:48:33.083Z,4.20
2022-09-20T19:51:08.532Z,4.50
2022-09-20T19:53:42.069Z,4.50
2022-09-20T19:56:26.797Z,4.00
2022-09-20T19:59:05.409Z,4.40
2022-09-20T20:01:56.530Z,5.80
2022-09-20T20:04:26.933Z,4.70
2022-09-20T20:07:18.161Z,4.70
2022-09-20T20:10:15.062Z,3.90
2022-09-20T20:13:02.282Z,6.80
2022-09-20T20:16:03.364Z,5.50
2022-09-20T20:18:42.082Z,5.10
2022-09-20T20:21:37.211Z,5.30
2022-09-20T20:24:33.844Z,4.10
2022-09-20T20:27:04.242Z,6.00
2022-09-20T20:29:36.859Z,4.90
2022-09-20T20:32:06.484Z,5.50
2022-09-20T20:34:39.397Z,5.60
2022-09-20T20:37:09.593Z,5.10
2022-09-20T20:39:45.922Z,4.60
2022-09-20T20:42:26.556Z,4.20
2022-09-20T20:44:59.987Z,5.30
2022-09-20T20:47:34.369Z,4.50
2022-09-20T20:50:31.058Z,4.10
2022-09-20T20:53:05.699Z,5.40
2022-09-20T20:55:35.604Z,5.80
2022-09-20T20:58:11.348Z,5.30
2022-09-20T21:00:44.799Z,4.50
2022-09-20T21:03:14.520Z,4.30
2022-09-20T21:05:44.492Z,5.30
2022-09-20T21:08:14.723Z,4.00
2022-09-20T21:10:44.568Z,4.60
2022-09-20T21:13:14.180Z,4.30
2022-09-20T21:15:46.014Z,3.70
2022-09-20T21:18:16.278Z,4.10
2022-09-20T21:20:52.038Z,5.10
2022-09-20T21:23:28.309Z,3.60
2022-09-20T21:26:08.833Z,5.00
2022-09-20T21:28:43.073Z,5.40
2022-09-20T21:31:26.018Z,4.00
2022-09-20T21:34:19.281Z,4.00
2022-09-20T21:36:52.190Z,4.40
2022-09-20T21:39:27.704Z,4.70
2022-09-20T21:42:30.409Z,4.30
2022-09-20T21:45:11.593Z,4.50
2022-09-20T21:47:47.341Z,6.00
2022-09-20T21:50:22.895Z,5.90
2022-09-20T21:52:53.033Z,4.30
2022-09-20T21:55:31.697Z,4.00
2022-09-20T21:58:21.080Z,4.50
2022-09-20T22:01:28.638Z,4.10
2022-09-20T22:04:08.934Z,5.10
2022-09-20T22:06:58.820Z,4.70
2022-09-20T22:09:41.631Z,3.40
2022-09-20T22:12:16.723Z,4.50
2022-09-20T22:15:09.527Z,6.60
2022-09-20T22:17:50.259Z,3.40
2022-09-20T22:20:58.712Z,6.30
2022-09-20T22:24:13.887Z,4.00
2022-09-20T22:26:57.593Z,4.70
2022-09-20T22:37:45.346Z,4.60
2022-09-20T22:40:35.593Z,3.70
2022-09-20T22:43:11.234Z,3.10
2022-09-20T22:45:46.780Z,3.90
2022-09-20T22:48:47.824Z,3.90
2022-09-20T22:51:44.585Z,5.00
2022-09-20T22:54:37.544Z,5.20
2022-09-20T22:57:18.295Z,4.90
2022-09-20T22:59:48.513Z,4.90
2022-09-20T23:02:31.954Z,3.90
2022-09-20T23:05:02.185Z,4.20
2022-09-20T23:07:51.822Z,4.70
2022-09-20T23:10:21.531Z,6.50
2022-09-20T23:12:57.873Z,4.70
2022-09-20T23:15:35.436Z,4.50
2022-09-20T23:18:31.767Z,6.60
2022-09-20T23:21:55.542Z,7.60
2022-09-20T23:24:38.474Z,4.40
2022-09-20T23:27:27.748Z,3.80
2022-09-20T23:30:06.042Z,5.40
2022-09-20T23:32:41.621Z,4.50
2022-09-20T23:35:19.593Z,5.60
2022-09-20T23:38:01.082Z,4.40
2022-09-20T23:40:39.929Z,5.30
2022-09-20T23:43:35.523Z,4.70
2022-09-20T23:46:21.119Z,5.80
2022-09-20T23:49:14.024Z,4.20
2022-09-20T23:52:16.437Z,4.20
2022-09-20T23:55:12.771Z,6.00
2022-09-20T23:57:50.123Z,4.80
